sensor_id;sensor_type;location;lat;lon;timestamp;temperature;humidity
25532;DHT22;13429;48.816;9.118;2024-03-07T00:00:12;5.90;95.10
25532;DHT22;13429;48.816;9.118;2024-03-07T00:02:45;5.90;95.10
25532;DHT22;13429;48.816;9.118;2024-03-07T00:05:13;5.90;95.00
25532;DHT22;13429;48.816;9.118;2024-03-07T00:07:39;5.90;94.90
25532;DHT22;13429;48.816;9.118;2024-03-07T00:10:05;5.80;94.90
25532;DHT22;13429;48.816;9.118;2024-03-07T00:12:33;5.80;94.80
25532;DHT22;13429;48.816;9.118;2024-03-07T00:15:11;5.80;94.80
25532;DHT22;13429;48.816;9.118;2024-03-07T00:17:38;5.80;94.70
25532;DHT22;13429;48.816;9.118;2024-03-07T00:20:05;5.80;94.70
25532;DHT22;13429;48.816;9.118;2024-03-07T00:22:37;5.80;94.70
25532;DHT22;13429;48.816;9.118;2024-03-07T00:25:04;5.70;94.40
25532;DHT22;13429;48.816;9.118;2024-03-07T00:27:31;5.70;94.40
25532;DHT22;13429;48.816;9.118;2024-03-07T00:29:58;5.60;94.30
25532;DHT22;13429;48.816;9.118;2024-03-07T00:32:23;5.60;94.20
25532;DHT22;13429;48.816;9.118;2024-03-07T00:34:50;5.60;94.10
25532;DHT22;13429;48.816;9.118;2024-03-07T00:37:16;5.60;94.10
25532;DHT22;13429;48.816;9.118;2024-03-07T00:39:42;5.50;93.80
25532;DHT22;13429;48.816;9.118;2024-03-07T00:42:08;5.50;93.70
25532;DHT22;13429;48.816;9.118;2024-03-07T00:44:33;5.50;93.70
25532;DHT22;13429;48.816;9.118;2024-03-07T00:47:02;5.50;93.90
25532;DHT22;13429;48.816;9.118;2024-03-07T00:49:28;5.40;93.60
25532;DHT22;13429;48.816;9.118;2024-03-07T00:51:54;5.40;93.70
25532;DHT22;13429;48.816;9.118;2024-03-07T00:54:20;5.40;93.60
25532;DHT22;13429;48.816;9.118;2024-03-07T00:56:45;5.40;93.50
25532;DHT22;13429;48.816;9.118;2024-03-07T00:59:15;5.40;93.50
25532;DHT22;13429;48.816;9.118;2024-03-07T01:01:41;5.40;93.60
25532;DHT22;13429;48.816;9.118;2024-03-07T01:04:07;5.30;93.70
25532;DHT22;13429;48.816;9.118;2024-03-07T01:06:33;5.30;93.60
25532;DHT22;13429;48.816;9.118;2024-03-07T01:08:59;5.30;93.60
25532;DHT22;13429;48.816;9.118;2024-03-07T01:11:25;5.30;93.60
25532;DHT22;13429;48.816;9.118;2024-03-07T01:13:51;5.20;93.70
25532;DHT22;13429;48.816;9.118;2024-03-07T01:16:16;5.20;93.60
25532;DHT22;13429;48.816;9.118;2024-03-07T01:18:42;5.10;93.60
25532;DHT22;13429;48.816;9.118;2024-03-07T01:21:07;5.00;93.40
25532;DHT22;13429;48.816;9.118;2024-03-07T01:23:34;4.90;92.90
25532;DHT22;13429;48.816;9.118;2024-03-07T01:26:00;4.80;93.00
25532;DHT22;13429;48.816;9.118;2024-03-07T01:28:26;4.80;92.90
25532;DHT22;13429;48.816;9.118;2024-03-07T01:30:56;4.70;92.70
25532;DHT22;13429;48.816;9.118;2024-03-07T01:33:22;4.60;92.50
25532;DHT22;13429;48.816;9.118;2024-03-07T01:35:48;4.40;92.50
25532;DHT22;13429;48.816;9.118;2024-03-07T01:38:14;4.40;92.30
25532;DHT22;13429;48.816;9.118;2024-03-07T01:40:41;4.30;92.40
25532;DHT22;13429;48.816;9.118;2024-03-07T01:43:08;4.20;92.50
25532;DHT22;13429;48.816;9.118;2024-03-07T01:45:34;4.20;92.50
25532;DHT22;13429;48.816;9.118;2024-03-07T01:48:02;4.10;92.60
25532;DHT22;13429;48.816;9.118;2024-03-07T01:50:28;3.90;92.50
25532;DHT22;13429;48.816;9.118;2024-03-07T01:52:54;3.90;92.40
25532;DHT22;13429;48.816;9.118;2024-03-07T01:55:22;3.80;92.20
25532;DHT22;13429;48.816;9.118;2024-03-07T01:57:49;3.80;92.30
25532;DHT22;13429;48.816;9.118;2024-03-07T02:00:15;3.80;92.50
25532;DHT22;13429;48.816;9.118;2024-03-07T02:02:44;3.70;92.20
25532;DHT22;13429;48.816;9.118;2024-03-07T02:05:10;3.70;92.50
25532;DHT22;13429;48.816;9.118;2024-03-07T02:07:36;3.60;92.20
25532;DHT22;13429;48.816;9.118;2024-03-07T02:10:03;3.50;92.30
25532;DHT22;13429;48.816;9.118;2024-03-07T02:12:29;3.40;92.50
25532;DHT22;13429;48.816;9.118;2024-03-07T02:14:56;3.40;92.60
25532;DHT22;13429;48.816;9.118;2024-03-07T02:17:23;3.40;92.70
25532;DHT22;13429;48.816;9.118;2024-03-07T02:19:49;3.40;92.70
25532;DHT22;13429;48.816;9.118;2024-03-07T02:22:16;3.30;92.60
25532;DHT22;13429;48.816;9.118;2024-03-07T02:24:41;3.40;92.50
25532;DHT22;13429;48.816;9.118;2024-03-07T02:27:07;3.40;92.40
25532;DHT22;13429;48.816;9.118;2024-03-07T02:29:35;3.30;92.30
25532;DHT22;13429;48.816;9.118;2024-03-07T02:32:01;3.20;92.20
25532;DHT22;13429;48.816;9.118;2024-03-07T02:34:27;3.10;92.10
25532;DHT22;13429;48.816;9.118;2024-03-07T02:36:53;3.00;92.20
25532;DHT22;13429;48.816;9.118;2024-03-07T02:39:18;2.90;92.20
25532;DHT22;13429;48.816;9.118;2024-03-07T02:41:44;2.90;92.30
25532;DHT22;13429;48.816;9.118;2024-03-07T02:44:09;2.80;92.40
25532;DHT22;13429;48.816;9.118;2024-03-07T02:46:35;2.60;92.60
25532;DHT22;13429;48.816;9.118;2024-03-07T02:49:02;2.50;92.70
25532;DHT22;13429;48.816;9.118;2024-03-07T02:51:27;2.40;92.80
25532;DHT22;13429;48.816;9.118;2024-03-07T02:53:53;2.40;92.90
25532;DHT22;13429;48.816;9.118;2024-03-07T02:56:19;2.30;93.20
25532;DHT22;13429;48.816;9.118;2024-03-07T02:58:45;2.30;93.00
25532;DHT22;13429;48.816;9.118;2024-03-07T03:01:11;2.30;93.10
25532;DHT22;13429;48.816;9.118;2024-03-07T03:03:37;2.30;93.10
25532;DHT22;13429;48.816;9.118;2024-03-07T03:06:03;2.20;93.10
25532;DHT22;13429;48.816;9.118;2024-03-07T03:08:29;2.20;93.00
25532;DHT22;13429;48.816;9.118;2024-03-07T03:10:55;2.10;93.10
25532;DHT22;13429;48.816;9.118;2024-03-07T03:13:23;2.00;93.20
25532;DHT22;13429;48.816;9.118;2024-03-07T03:15:48;2.00;93.30
25532;DHT22;13429;48.816;9.118;2024-03-07T03:18:14;2.00;93.40
25532;DHT22;13429;48.816;9.118;2024-03-07T03:20:41;1.90;93.30
25532;DHT22;13429;48.816;9.118;2024-03-07T03:23:09;1.80;93.30
25532;DHT22;13429;48.816;9.118;2024-03-07T03:25:39;1.80;93.40
25532;DHT22;13429;48.816;9.118;2024-03-07T03:28:05;1.80;93.50
25532;DHT22;13429;48.816;9.118;2024-03-07T03:30:32;1.80;93.60
25532;DHT22;13429;48.816;9.118;2024-03-07T03:32:58;1.70;93.60
25532;DHT22;13429;48.816;9.118;2024-03-07T03:35:24;1.60;93.70
25532;DHT22;13429;48.816;9.118;2024-03-07T03:37:50;1.50;93.80
25532;DHT22;13429;48.816;9.118;2024-03-07T03:40:16;1.50;93.90
25532;DHT22;13429;48.816;9.118;2024-03-07T03:42:42;1.40;93.90
25532;DHT22;13429;48.816;9.118;2024-03-07T03:45:09;1.40;93.90
25532;DHT22;13429;48.816;9.118;2024-03-07T03:47:37;1.40;93.90
25532;DHT22;13429;48.816;9.118;2024-03-07T03:50:08;1.40;94.10
25532;DHT22;13429;48.816;9.118;2024-03-07T03:52:34;1.40;94.20
25532;DHT22;13429;48.816;9.118;2024-03-07T03:55:03;1.60;94.40
25532;DHT22;13429;48.816;9.118;2024-03-07T03:57:33;1.70;94.10
25532;DHT22;13429;48.816;9.118;2024-03-07T03:59:59;1.80;94.00
25532;DHT22;13429;48.816;9.118;2024-03-07T04:02:25;1.80;93.90
25532;DHT22;13429;48.816;9.118;2024-03-07T04:04:52;1.90;93.80
25532;DHT22;13429;48.816;9.118;2024-03-07T04:07:21;2.00;93.70
25532;DHT22;13429;48.816;9.118;2024-03-07T04:09:46;2.00;93.60
25532;DHT22;13429;48.816;9.118;2024-03-07T04:12:13;2.00;93.50
25532;DHT22;13429;48.816;9.118;2024-03-07T04:14:42;2.00;93.50
25532;DHT22;13429;48.816;9.118;2024-03-07T04:17:09;2.00;93.50
25532;DHT22;13429;48.816;9.118;2024-03-07T04:19:39;1.90;93.50
25532;DHT22;13429;48.816;9.118;2024-03-07T04:22:04;1.90;93.60
25532;DHT22;13429;48.816;9.118;2024-03-07T04:24:31;1.90;93.50
25532;DHT22;13429;48.816;9.118;2024-03-07T04:26:59;2.00;93.60
25532;DHT22;13429;48.816;9.118;2024-03-07T04:29:26;2.00;93.50
25532;DHT22;13429;48.816;9.118;2024-03-07T04:31:52;2.00;93.40
25532;DHT22;13429;48.816;9.118;2024-03-07T04:34:17;1.90;93.30
25532;DHT22;13429;48.816;9.118;2024-03-07T04:36:43;2.00;93.40
25532;DHT22;13429;48.816;9.118;2024-03-07T04:39:08;2.00;93.40
25532;DHT22;13429;48.816;9.118;2024-03-07T04:41:48;1.90;93.40
25532;DHT22;13429;48.816;9.118;2024-03-07T04:44:13;1.90;93.50
25532;DHT22;13429;48.816;9.118;2024-03-07T04:46:39;2.00;93.50
25532;DHT22;13429;48.816;9.118;2024-03-07T04:49:08;1.90;93.30
25532;DHT22;13429;48.816;9.118;2024-03-07T04:51:34;1.90;93.40
25532;DHT22;13429;48.816;9.118;2024-03-07T04:54:00;1.90;93.40
25532;DHT22;13429;48.816;9.118;2024-03-07T04:56:26;1.90;93.50
25532;DHT22;13429;48.816;9.118;2024-03-07T04:58:51;1.90;93.40
25532;DHT22;13429;48.816;9.118;2024-03-07T05:01:20;1.80;93.40
25532;DHT22;13429;48.816;9.118;2024-03-07T05:03:46;1.80;93.30
25532;DHT22;13429;48.816;9.118;2024-03-07T05:06:12;1.80;93.20
25532;DHT22;13429;48.816;9.118;2024-03-07T05:08:38;1.70;93.20
25532;DHT22;13429;48.816;9.118;2024-03-07T05:11:03;1.70;93.20
25532;DHT22;13429;48.816;9.118;2024-03-07T05:13:29;1.60;93.20
25532;DHT22;13429;48.816;9.118;2024-03-07T05:15:57;1.60;93.20
25532;DHT22;13429;48.816;9.118;2024-03-07T05:18:23;1.40;93.20
25532;DHT22;13429;48.816;9.118;2024-03-07T05:20:49;1.30;93.20
25532;DHT22;13429;48.816;9.118;2024-03-07T05:23:14;1.30;93.30
25532;DHT22;13429;48.816;9.118;2024-03-07T05:25:40;1.10;93.40
25532;DHT22;13429;48.816;9.118;2024-03-07T05:28:06;1.10;93.50
25532;DHT22;13429;48.816;9.118;2024-03-07T05:30:31;1.00;93.70
25532;DHT22;13429;48.816;9.118;2024-03-07T05:32:58;1.00;93.70
25532;DHT22;13429;48.816;9.118;2024-03-07T05:35:26;0.90;93.70
25532;DHT22;13429;48.816;9.118;2024-03-07T05:37:55;0.90;93.70
25532;DHT22;13429;48.816;9.118;2024-03-07T05:40:22;0.90;93.70
25532;DHT22;13429;48.816;9.118;2024-03-07T05:42:48;0.80;93.70
25532;DHT22;13429;48.816;9.118;2024-03-07T05:45:14;0.80;93.70
25532;DHT22;13429;48.816;9.118;2024-03-07T05:47:40;0.70;93.70
25532;DHT22;13429;48.816;9.118;2024-03-07T05:50:08;0.60;93.70
25532;DHT22;13429;48.816;9.118;2024-03-07T05:52:34;0.50;93.80
25532;DHT22;13429;48.816;9.118;2024-03-07T05:55:00;0.50;94.10
25532;DHT22;13429;48.816;9.118;2024-03-07T05:57:26;0.60;94.20
25532;DHT22;13429;48.816;9.118;2024-03-07T05:59:51;0.70;94.10
25532;DHT22;13429;48.816;9.118;2024-03-07T06:02:17;0.70;94.00
25532;DHT22;13429;48.816;9.118;2024-03-07T06:04:43;0.70;93.90
25532;DHT22;13429;48.816;9.118;2024-03-07T06:07:09;0.60;93.90
25532;DHT22;13429;48.816;9.118;2024-03-07T06:09:36;0.60;93.90
25532;DHT22;13429;48.816;9.118;2024-03-07T06:12:02;0.60;93.90
25532;DHT22;13429;48.816;9.118;2024-03-07T06:14:29;0.60;94.00
25532;DHT22;13429;48.816;9.118;2024-03-07T06:16:56;0.60;94.00
25532;DHT22;13429;48.816;9.118;2024-03-07T06:19:23;0.70;94.00
25532;DHT22;13429;48.816;9.118;2024-03-07T06:21:49;0.70;94.00
25532;DHT22;13429;48.816;9.118;2024-03-07T06:24:15;0.80;93.80
25532;DHT22;13429;48.816;9.118;2024-03-07T06:26:43;0.80;93.70
25532;DHT22;13429;48.816;9.118;2024-03-07T06:29:29;0.80;93.50
25532;DHT22;13429;48.816;9.118;2024-03-07T06:31:55;0.90;93.50
25532;DHT22;13429;48.816;9.118;2024-03-07T06:34:21;0.90;93.50
25532;DHT22;13429;48.816;9.118;2024-03-07T06:36:46;1.00;93.50
25532;DHT22;13429;48.816;9.118;2024-03-07T06:39:12;1.00;93.50
25532;DHT22;13429;48.816;9.118;2024-03-07T06:41:38;1.10;93.20
25532;DHT22;13429;48.816;9.118;2024-03-07T06:44:04;1.10;93.20
25532;DHT22;13429;48.816;9.118;2024-03-07T06:46:30;1.20;92.80
25532;DHT22;13429;48.816;9.118;2024-03-07T06:48:57;1.30;92.80
25532;DHT22;13429;48.816;9.118;2024-03-07T06:51:23;1.30;92.90
25532;DHT22;13429;48.816;9.118;2024-03-07T06:53:50;1.30;93.00
25532;DHT22;13429;48.816;9.118;2024-03-07T06:56:16;1.40;93.10
25532;DHT22;13429;48.816;9.118;2024-03-07T06:58:42;1.40;93.10
25532;DHT22;13429;48.816;9.118;2024-03-07T07:01:09;1.50;93.10
25532;DHT22;13429;48.816;9.118;2024-03-07T07:03:39;1.60;92.90
25532;DHT22;13429;48.816;9.118;2024-03-07T07:06:05;1.60;92.60
25532;DHT22;13429;48.816;9.118;2024-03-07T07:08:33;1.70;92.20
25532;DHT22;13429;48.816;9.118;2024-03-07T07:10:59;1.80;92.00
25532;DHT22;13429;48.816;9.118;2024-03-07T07:13:25;1.80;91.60
25532;DHT22;13429;48.816;9.118;2024-03-07T07:15:51;1.80;91.10
25532;DHT22;13429;48.816;9.118;2024-03-07T07:18:16;1.90;90.70
25532;DHT22;13429;48.816;9.118;2024-03-07T07:20:42;1.90;90.30
25532;DHT22;13429;48.816;9.118;2024-03-07T07:23:08;2.00;90.50
25532;DHT22;13429;48.816;9.118;2024-03-07T07:25:34;2.10;90.10
25532;DHT22;13429;48.816;9.118;2024-03-07T07:27:59;2.10;89.50
25532;DHT22;13429;48.816;9.118;2024-03-07T07:30:26;2.10;89.50
25532;DHT22;13429;48.816;9.118;2024-03-07T07:32:53;2.20;89.60
25532;DHT22;13429;48.816;9.118;2024-03-07T07:35:21;2.30;89.00
25532;DHT22;13429;48.816;9.118;2024-03-07T07:37:49;2.40;89.70
25532;DHT22;13429;48.816;9.118;2024-03-07T07:40:17;2.60;89.90
25532;DHT22;13429;48.816;9.118;2024-03-07T07:42:50;2.60;88.90
25532;DHT22;13429;48.816;9.118;2024-03-07T07:45:19;2.60;88.60
25532;DHT22;13429;48.816;9.118;2024-03-07T07:47:47;2.80;89.40
25532;DHT22;13429;48.816;9.118;2024-03-07T07:50:22;2.70;89.30
25532;DHT22;13429;48.816;9.118;2024-03-07T07:52:56;2.60;88.20
25532;DHT22;13429;48.816;9.118;2024-03-07T07:55:29;2.60;88.40
25532;DHT22;13429;48.816;9.118;2024-03-07T07:57:59;2.80;88.80
25532;DHT22;13429;48.816;9.118;2024-03-07T08:00:27;2.80;88.20
25532;DHT22;13429;48.816;9.118;2024-03-07T08:02:54;2.90;87.90
25532;DHT22;13429;48.816;9.118;2024-03-07T08:05:24;3.00;88.70
25532;DHT22;13429;48.816;9.118;2024-03-07T08:07:55;3.20;88.80
25532;DHT22;13429;48.816;9.118;2024-03-07T08:10:22;3.40;87.80
25532;DHT22;13429;48.816;9.118;2024-03-07T08:12:49;3.40;88.00
25532;DHT22;13429;48.816;9.118;2024-03-07T08:15:15;3.50;88.10
25532;DHT22;13429;48.816;9.118;2024-03-07T08:17:45;3.50;87.70
25532;DHT22;13429;48.816;9.118;2024-03-07T08:20:12;3.60;87.80
25532;DHT22;13429;48.816;9.118;2024-03-07T08:22:39;3.60;86.40
25532;DHT22;13429;48.816;9.118;2024-03-07T08:25:07;3.60;86.50
25532;DHT22;13429;48.816;9.118;2024-03-07T08:27:38;3.40;86.10
25532;DHT22;13429;48.816;9.118;2024-03-07T08:30:05;3.40;86.00
25532;DHT22;13429;48.816;9.118;2024-03-07T08:32:33;3.30;86.20
25532;DHT22;13429;48.816;9.118;2024-03-07T08:35:00;3.30;86.20
25532;DHT22;13429;48.816;9.118;2024-03-07T08:37:32;3.50;86.50
25532;DHT22;13429;48.816;9.118;2024-03-07T08:39:59;3.70;87.20
25532;DHT22;13429;48.816;9.118;2024-03-07T08:42:26;3.80;86.90
25532;DHT22;13429;48.816;9.118;2024-03-07T08:44:52;3.70;87.00
25532;DHT22;13429;48.816;9.118;2024-03-07T08:47:18;3.70;86.60
25532;DHT22;13429;48.816;9.118;2024-03-07T08:49:43;3.80;86.70
25532;DHT22;13429;48.816;9.118;2024-03-07T08:52:09;4.00;86.30
25532;DHT22;13429;48.816;9.118;2024-03-07T08:54:34;4.10;86.10
25532;DHT22;13429;48.816;9.118;2024-03-07T08:57:00;4.10;85.60
25532;DHT22;13429;48.816;9.118;2024-03-07T08:59:26;4.10;86.00
25532;DHT22;13429;48.816;9.118;2024-03-07T09:01:51;4.20;85.10
25532;DHT22;13429;48.816;9.118;2024-03-07T09:04:17;4.40;85.70
25532;DHT22;13429;48.816;9.118;2024-03-07T09:06:43;4.40;84.00
25532;DHT22;13429;48.816;9.118;2024-03-07T09:09:11;4.50;84.70
25532;DHT22;13429;48.816;9.118;2024-03-07T09:11:36;4.60;84.50
25532;DHT22;13429;48.816;9.118;2024-03-07T09:14:02;4.80;84.20
25532;DHT22;13429;48.816;9.118;2024-03-07T09:16:35;4.90;84.10
25532;DHT22;13429;48.816;9.118;2024-03-07T09:19:00;4.90;83.10
25532;DHT22;13429;48.816;9.118;2024-03-07T09:21:26;5.10;82.90
25532;DHT22;13429;48.816;9.118;2024-03-07T09:23:51;5.30;81.30
25532;DHT22;13429;48.816;9.118;2024-03-07T09:26:17;5.30;82.10
25532;DHT22;13429;48.816;9.118;2024-03-07T09:28:43;5.30;82.10
25532;DHT22;13429;48.816;9.118;2024-03-07T09:31:08;5.40;81.90
25532;DHT22;13429;48.816;9.118;2024-03-07T09:33:34;5.50;80.90
25532;DHT22;13429;48.816;9.118;2024-03-07T09:36:00;5.50;81.90
25532;DHT22;13429;48.816;9.118;2024-03-07T09:38:25;5.60;81.30
25532;DHT22;13429;48.816;9.118;2024-03-07T09:40:53;5.70;80.50
25532;DHT22;13429;48.816;9.118;2024-03-07T09:43:19;5.80;81.30
25532;DHT22;13429;48.816;9.118;2024-03-07T09:45:46;5.90;81.00
25532;DHT22;13429;48.816;9.118;2024-03-07T09:48:13;5.80;80.20
25532;DHT22;13429;48.816;9.118;2024-03-07T09:50:40;6.00;78.50
25532;DHT22;13429;48.816;9.118;2024-03-07T09:53:07;5.80;80.40
25532;DHT22;13429;48.816;9.118;2024-03-07T09:55:34;6.00;79.90
25532;DHT22;13429;48.816;9.118;2024-03-07T09:58:01;6.20;80.10
25532;DHT22;13429;48.816;9.118;2024-03-07T10:00:27;6.30;80.20
25532;DHT22;13429;48.816;9.118;2024-03-07T10:03:05;6.30;80.10
25532;DHT22;13429;48.816;9.118;2024-03-07T10:05:32;6.30;79.10
25532;DHT22;13429;48.816;9.118;2024-03-07T10:07:58;6.70;79.60
25532;DHT22;13429;48.816;9.118;2024-03-07T10:10:24;6.50;78.90
25532;DHT22;13429;48.816;9.118;2024-03-07T10:12:50;6.40;77.10
25532;DHT22;13429;48.816;9.118;2024-03-07T10:15:17;6.40;78.30
25532;DHT22;13429;48.816;9.118;2024-03-07T10:17:45;6.40;76.00
25532;DHT22;13429;48.816;9.118;2024-03-07T10:20:12;6.30;76.70
25532;DHT22;13429;48.816;9.118;2024-03-07T10:22:40;6.30;76.00
25532;DHT22;13429;48.816;9.118;2024-03-07T10:25:06;6.10;75.90
25532;DHT22;13429;48.816;9.118;2024-03-07T10:27:38;6.40;77.10
25532;DHT22;13429;48.816;9.118;2024-03-07T10:30:05;6.70;78.40
25532;DHT22;13429;48.816;9.118;2024-03-07T10:32:33;6.70;75.50
25532;DHT22;13429;48.816;9.118;2024-03-07T10:34:59;6.50;76.60
25532;DHT22;13429;48.816;9.118;2024-03-07T10:37:24;6.60;76.50
25532;DHT22;13429;48.816;9.118;2024-03-07T10:39:51;6.60;75.20
25532;DHT22;13429;48.816;9.118;2024-03-07T10:42:18;6.80;75.90
25532;DHT22;13429;48.816;9.118;2024-03-07T10:44:46;6.80;76.50
25532;DHT22;13429;48.816;9.118;2024-03-07T10:47:16;6.90;76.90
25532;DHT22;13429;48.816;9.118;2024-03-07T10:50:37;7.00;75.80
25532;DHT22;13429;48.816;9.118;2024-03-07T11:01:20;7.60;74.30
25532;DHT22;13429;48.816;9.118;2024-03-07T11:03:46;7.60;73.90
25532;DHT22;13429;48.816;9.118;2024-03-07T11:06:13;7.60;74.30
25532;DHT22;13429;48.816;9.118;2024-03-07T11:08:39;7.60;74.00
25532;DHT22;13429;48.816;9.118;2024-03-07T11:11:05;7.70;74.10
25532;DHT22;13429;48.816;9.118;2024-03-07T11:13:33;7.80;74.40
25532;DHT22;13429;48.816;9.118;2024-03-07T11:16:00;7.90;74.50
25532;DHT22;13429;48.816;9.118;2024-03-07T11:18:28;8.00;73.10
25532;DHT22;13429;48.816;9.118;2024-03-07T11:20:54;8.00;72.70
25532;DHT22;13429;48.816;9.118;2024-03-07T11:23:32;8.00;72.70
25532;DHT22;13429;48.816;9.118;2024-03-07T11:26:10;8.10;73.50
25532;DHT22;13429;48.816;9.118;2024-03-07T11:28:38;8.20;72.40
25532;DHT22;13429;48.816;9.118;2024-03-07T11:31:34;8.20;71.40
25532;DHT22;13429;48.816;9.118;2024-03-07T11:34:14;7.90;71.70
25532;DHT22;13429;48.816;9.118;2024-03-07T11:36:45;8.10;72.30
25532;DHT22;13429;48.816;9.118;2024-03-07T11:39:42;8.30;71.20
25532;DHT22;13429;48.816;9.118;2024-03-07T11:42:09;8.30;70.70
25532;DHT22;13429;48.816;9.118;2024-03-07T11:44:44;8.50;72.30
25532;DHT22;13429;48.816;9.118;2024-03-07T11:47:10;8.70;71.00
25532;DHT22;13429;48.816;9.118;2024-03-07T11:49:37;8.80;70.00
25532;DHT22;13429;48.816;9.118;2024-03-07T11:52:04;8.80;71.10
25532;DHT22;13429;48.816;9.118;2024-03-07T11:54:37;8.80;70.00
25532;DHT22;13429;48.816;9.118;2024-03-07T11:57:06;8.80;70.70
25532;DHT22;13429;48.816;9.118;2024-03-07T11:59:42;8.90;70.30
25532;DHT22;13429;48.816;9.118;2024-03-07T12:02:14;8.90;70.00
25532;DHT22;13429;48.816;9.118;2024-03-07T12:04:47;8.50;69.50
25532;DHT22;13429;48.816;9.118;2024-03-07T12:07:12;8.80;70.50
25532;DHT22;13429;48.816;9.118;2024-03-07T12:09:43;8.60;69.50
25532;DHT22;13429;48.816;9.118;2024-03-07T12:12:11;8.50;70.20
25532;DHT22;13429;48.816;9.118;2024-03-07T12:14:38;8.40;70.80
25532;DHT22;13429;48.816;9.118;2024-03-07T12:17:04;8.60;70.20
25532;DHT22;13429;48.816;9.118;2024-03-07T12:19:34;8.40;69.50
25532;DHT22;13429;48.816;9.118;2024-03-07T12:22:01;8.30;69.10
25532;DHT22;13429;48.816;9.118;2024-03-07T12:24:28;8.40;69.70
25532;DHT22;13429;48.816;9.118;2024-03-07T12:27:05;8.40;69.70
25532;DHT22;13429;48.816;9.118;2024-03-07T12:29:31;8.50;68.80
25532;DHT22;13429;48.816;9.118;2024-03-07T12:31:58;8.40;69.20
25532;DHT22;13429;48.816;9.118;2024-03-07T12:34:25;8.30;69.50
25532;DHT22;13429;48.816;9.118;2024-03-07T12:36:55;8.30;69.90
25532;DHT22;13429;48.816;9.118;2024-03-07T12:39:22;8.30;70.70
25532;DHT22;13429;48.816;9.118;2024-03-07T12:41:52;8.20;69.20
25532;DHT22;13429;48.816;9.118;2024-03-07T12:44:21;8.10;70.90
25532;DHT22;13429;48.816;9.118;2024-03-07T12:46:56;8.10;70.70
25532;DHT22;13429;48.816;9.118;2024-03-07T12:49:22;8.10;70.30
25532;DHT22;13429;48.816;9.118;2024-03-07T12:51:55;8.10;71.40
25532;DHT22;13429;48.816;9.118;2024-03-07T12:54:22;8.10;70.80
25532;DHT22;13429;48.816;9.118;2024-03-07T12:56:48;8.10;70.70
25532;DHT22;13429;48.816;9.118;2024-03-07T12:59:16;8.10;69.60
25532;DHT22;13429;48.816;9.118;2024-03-07T13:01:42;8.10;70.10
25532;DHT22;13429;48.816;9.118;2024-03-07T13:04:11;8.20;71.00
25532;DHT22;13429;48.816;9.118;2024-03-07T13:06:36;8.30;71.10
25532;DHT22;13429;48.816;9.118;2024-03-07T13:09:02;8.30;69.90
25532;DHT22;13429;48.816;9.118;2024-03-07T13:11:29;8.10;69.60
25532;DHT22;13429;48.816;9.118;2024-03-07T13:13:58;8.20;69.90
25532;DHT22;13429;48.816;9.118;2024-03-07T13:16:24;8.10;69.70
25532;DHT22;13429;48.816;9.118;2024-03-07T13:18:54;8.00;69.20
25532;DHT22;13429;48.816;9.118;2024-03-07T13:21:20;7.90;70.30
25532;DHT22;13429;48.816;9.118;2024-03-07T13:23:46;8.00;70.80
25532;DHT22;13429;48.816;9.118;2024-03-07T13:26:12;8.10;70.10
25532;DHT22;13429;48.816;9.118;2024-03-07T13:28:43;7.90;70.40
25532;DHT22;13429;48.816;9.118;2024-03-07T13:31:10;7.90;69.60
25532;DHT22;13429;48.816;9.118;2024-03-07T13:33:37;7.90;70.00
25532;DHT22;13429;48.816;9.118;2024-03-07T13:36:03;7.70;69.30
25532;DHT22;13429;48.816;9.118;2024-03-07T13:38:30;7.70;70.50
25532;DHT22;13429;48.816;9.118;2024-03-07T13:40:56;7.80;71.40
25532;DHT22;13429;48.816;9.118;2024-03-07T13:43:22;7.90;70.00
25532;DHT22;13429;48.816;9.118;2024-03-07T13:45:48;7.90;70.40
25532;DHT22;13429;48.816;9.118;2024-03-07T13:48:15;7.90;70.20
25532;DHT22;13429;48.816;9.118;2024-03-07T13:50:43;7.80;69.80
25532;DHT22;13429;48.816;9.118;2024-03-07T13:53:14;7.90;70.10
25532;DHT22;13429;48.816;9.118;2024-03-07T14:24:16;8.10;69.60
25532;DHT22;13429;48.816;9.118;2024-03-07T14:32:29;8.00;69.80
25532;DHT22;13429;48.816;9.118;2024-03-07T14:35:17;8.10;70.30
25532;DHT22;13429;48.816;9.118;2024-03-07T14:37:52;8.20;69.50
25532;DHT22;13429;48.816;9.118;2024-03-07T14:40:21;8.20;69.50
25532;DHT22;13429;48.816;9.118;2024-03-07T14:42:47;8.10;70.20
25532;DHT22;13429;48.816;9.118;2024-03-07T14:45:25;8.30;69.90
25532;DHT22;13429;48.816;9.118;2024-03-07T14:47:52;8.30;68.80
25532;DHT22;13429;48.816;9.118;2024-03-07T14:50:18;8.30;69.50
25532;DHT22;13429;48.816;9.118;2024-03-07T14:52:46;8.30;69.10
25532;DHT22;13429;48.816;9.118;2024-03-07T14:55:12;8.40;69.30
25532;DHT22;13429;48.816;9.118;2024-03-07T14:57:46;8.40;68.00
25532;DHT22;13429;48.816;9.118;2024-03-07T15:00:12;8.30;68.70
25532;DHT22;13429;48.816;9.118;2024-03-07T15:02:46;8.30;68.60
25532;DHT22;13429;48.816;9.118;2024-03-07T15:05:12;8.30;69.00
25532;DHT22;13429;48.816;9.118;2024-03-07T15:07:39;8.20;68.00
25532;DHT22;13429;48.816;9.118;2024-03-07T15:10:17;8.10;67.30
25532;DHT22;13429;48.816;9.118;2024-03-07T15:12:47;8.10;68.20
25532;DHT22;13429;48.816;9.118;2024-03-07T15:15:14;8.20;68.20
25532;DHT22;13429;48.816;9.118;2024-03-07T15:17:42;8.20;68.40
25532;DHT22;13429;48.816;9.118;2024-03-07T15:20:09;8.20;68.50
25532;DHT22;13429;48.816;9.118;2024-03-07T15:22:41;8.30;68.90
25532;DHT22;13429;48.816;9.118;2024-03-07T15:25:12;8.30;69.40
25532;DHT22;13429;48.816;9.118;2024-03-07T15:27:41;8.40;68.30
25532;DHT22;13429;48.816;9.118;2024-03-07T15:30:07;8.30;68.60
25532;DHT22;13429;48.816;9.118;2024-03-07T15:32:42;8.20;67.90
25532;DHT22;13429;48.816;9.118;2024-03-07T15:35:09;8.10;68.80
25532;DHT22;13429;48.816;9.118;2024-03-07T15:37:39;8.00;69.00
25532;DHT22;13429;48.816;9.118;2024-03-07T15:40:10;8.00;67.70
25532;DHT22;13429;48.816;9.118;2024-03-07T15:42:46;7.90;68.50
25532;DHT22;13429;48.816;9.118;2024-03-07T15:45:20;8.00;68.70
25532;DHT22;13429;48.816;9.118;2024-03-07T15:47:49;7.90;67.20
25532;DHT22;13429;48.816;9.118;2024-03-07T15:50:16;7.90;68.50
25532;DHT22;13429;48.816;9.118;2024-03-07T15:52:48;7.80;68.10
25532;DHT22;13429;48.816;9.118;2024-03-07T15:55:17;7.80;68.30
25532;DHT22;13429;48.816;9.118;2024-03-07T15:57:47;7.70;68.30
25532;DHT22;13429;48.816;9.118;2024-03-07T16:00:18;7.70;68.20
25532;DHT22;13429;48.816;9.118;2024-03-07T16:03:01;7.60;69.40
25532;DHT22;13429;48.816;9.118;2024-03-07T16:05:30;7.60;68.80
25532;DHT22;13429;48.816;9.118;2024-03-07T16:07:58;7.60;68.50
25532;DHT22;13429;48.816;9.118;2024-03-07T16:10:29;7.60;68.50
25532;DHT22;13429;48.816;9.118;2024-03-07T16:13:04;7.50;69.20
25532;DHT22;13429;48.816;9.118;2024-03-07T16:15:32;7.40;69.50
25532;DHT22;13429;48.816;9.118;2024-03-07T16:17:59;7.40;69.20
25532;DHT22;13429;48.816;9.118;2024-03-07T16:20:25;7.30;68.60
25532;DHT22;13429;48.816;9.118;2024-03-07T16:22:51;7.30;69.50
25532;DHT22;13429;48.816;9.118;2024-03-07T16:25:18;7.30;68.80
25532;DHT22;13429;48.816;9.118;2024-03-07T16:27:46;7.10;69.10
25532;DHT22;13429;48.816;9.118;2024-03-07T16:30:17;7.10;69.50